sensor_id;sensor_type;location;lat;lon;timestamp;temperature;humidity
49184;DHT22;35021;49.214;12.270;2024-01-30T00:00:28;20.40;26.50
49184;DHT22;35021;49.214;12.270;2024-01-30T00:02:55;20.40;26.50
49184;DHT22;35021;49.214;12.270;2024-01-30T00:05:22;20.30;26.50
49184;DHT22;35021;49.214;12.270;2024-01-30T00:07:50;20.30;26.50
49184;DHT22;35021;49.214;12.270;2024-01-30T00:10:17;20.30;26.60
49184;DHT22;35021;49.214;12.270;2024-01-30T00:12:44;20.30;26.60
49184;DHT22;35021;49.214;12.270;2024-01-30T00:15:11;20.20;26.60
49184;DHT22;35021;49.214;12.270;2024-01-30T00:17:38;20.20;26.60
49184;DHT22;35021;49.214;12.270;2024-01-30T00:20:05;20.10;26.60
49184;DHT22;35021;49.214;12.270;2024-01-30T00:22:33;20.20;26.70
49184;DHT22;35021;49.214;12.270;2024-01-30T00:25:00;20.20;26.70
49184;DHT22;35021;49.214;12.270;2024-01-30T00:27:28;20.10;26.60
49184;DHT22;35021;49.214;12.270;2024-01-30T00:29:55;20.10;26.70
49184;DHT22;35021;49.214;12.270;2024-01-30T00:32:22;20.10;26.60
49184;DHT22;35021;49.214;12.270;2024-01-30T00:34:50;20.10;26.60
49184;DHT22;35021;49.214;12.270;2024-01-30T00:37:17;20.10;26.60
49184;DHT22;35021;49.214;12.270;2024-01-30T00:39:44;20.10;26.60
49184;DHT22;35021;49.214;12.270;2024-01-30T00:42:11;20.10;26.60
49184;DHT22;35021;49.214;12.270;2024-01-30T00:44:38;20.10;26.60
49184;DHT22;35021;49.214;12.270;2024-01-30T00:47:06;20.10;26.60
49184;DHT22;35021;49.214;12.270;2024-01-30T00:49:33;20.10;26.60
49184;DHT22;35021;49.214;12.270;2024-01-30T00:52:00;20.10;26.60
49184;DHT22;35021;49.214;12.270;2024-01-30T00:54:28;20.10;26.60
49184;DHT22;35021;49.214;12.270;2024-01-30T00:56:55;20.10;26.60
49184;DHT22;35021;49.214;12.270;2024-01-30T00:59:22;20.10;26.60
49184;DHT22;35021;49.214;12.270;2024-01-30T01:01:49;20.10;26.60
49184;DHT22;35021;49.214;12.270;2024-01-30T01:04:16;20.10;26.60
49184;DHT22;35021;49.214;12.270;2024-01-30T01:06:44;20.10;26.60
49184;DHT22;35021;49.214;12.270;2024-01-30T01:09:11;20.10;26.60
49184;DHT22;35021;49.214;12.270;2024-01-30T01:11:39;20.10;26.60
49184;DHT22;35021;49.214;12.270;2024-01-30T01:14:06;20.10;26.60
49184;DHT22;35021;49.214;12.270;2024-01-30T01:16:33;20.10;26.60
49184;DHT22;35021;49.214;12.270;2024-01-30T01:19:00;20.00;26.50
49184;DHT22;35021;49.214;12.270;2024-01-30T01:21:28;20.00;26.50
49184;DHT22;35021;49.214;12.270;2024-01-30T01:23:55;20.00;26.50
49184;DHT22;35021;49.214;12.270;2024-01-30T01:26:23;20.00;26.50
49184;DHT22;35021;49.214;12.270;2024-01-30T01:28:50;20.00;26.50
49184;DHT22;35021;49.214;12.270;2024-01-30T01:31:17;20.00;26.50
49184;DHT22;35021;49.214;12.270;2024-01-30T01:33:45;20.00;26.50
49184;DHT22;35021;49.214;12.270;2024-01-30T01:36:13;20.00;26.50
49184;DHT22;35021;49.214;12.270;2024-01-30T01:38:40;20.00;26.50
49184;DHT22;35021;49.214;12.270;2024-01-30T01:41:07;20.00;26.40
49184;DHT22;35021;49.214;12.270;2024-01-30T01:43:34;20.00;26.50
49184;DHT22;35021;49.214;12.270;2024-01-30T01:46:01;20.00;26.40
49184;DHT22;35021;49.214;12.270;2024-01-30T01:48:28;20.00;26.40
49184;DHT22;35021;49.214;12.270;2024-01-30T01:50:56;20.00;26.40
49184;DHT22;35021;49.214;12.270;2024-01-30T01:53:23;20.00;26.40
49184;DHT22;35021;49.214;12.270;2024-01-30T01:55:51;19.90;26.40
49184;DHT22;35021;49.214;12.270;2024-01-30T01:58:19;19.90;26.50
49184;DHT22;35021;49.214;12.270;2024-01-30T02:00:49;19.80;26.50
49184;DHT22;35021;49.214;12.270;2024-01-30T02:03:17;19.80;27.10
49184;DHT22;35021;49.214;12.270;2024-01-30T02:05:45;19.80;26.60
49184;DHT22;35021;49.214;12.270;2024-01-30T02:08:12;19.70;26.60
49184;DHT22;35021;49.214;12.270;2024-01-30T02:10:53;19.70;26.60
49184;DHT22;35021;49.214;12.270;2024-01-30T02:13:20;19.60;26.60
49184;DHT22;35021;49.214;12.270;2024-01-30T02:15:53;19.60;26.70
49184;DHT22;35021;49.214;12.270;2024-01-30T02:18:20;19.60;26.70
49184;DHT22;35021;49.214;12.270;2024-01-30T02:20:50;19.60;26.80
49184;DHT22;35021;49.214;12.270;2024-01-30T02:23:20;19.50;26.70
49184;DHT22;35021;49.214;12.270;2024-01-30T02:25:47;19.50;26.80
49184;DHT22;35021;49.214;12.270;2024-01-30T02:28:14;19.40;26.80
49184;DHT22;35021;49.214;12.270;2024-01-30T02:30:45;19.40;26.80
49184;DHT22;35021;49.214;12.270;2024-01-30T02:33:14;19.40;26.80
49184;DHT22;35021;49.214;12.270;2024-01-30T02:35:40;19.40;26.80
49184;DHT22;35021;49.214;12.270;2024-01-30T02:38:07;19.40;26.80
49184;DHT22;35021;49.214;12.270;2024-01-30T02:40:34;19.50;26.80
49184;DHT22;35021;49.214;12.270;2024-01-30T02:43:02;19.60;26.70
49184;DHT22;35021;49.214;12.270;2024-01-30T02:45:29;19.60;26.70
49184;DHT22;35021;49.214;12.270;2024-01-30T02:47:56;19.70;26.60
49184;DHT22;35021;49.214;12.270;2024-01-30T02:50:23;19.80;26.60
49184;DHT22;35021;49.214;12.270;2024-01-30T02:52:50;19.90;26.50
49184;DHT22;35021;49.214;12.270;2024-01-30T02:55:17;20.00;26.40
49184;DHT22;35021;49.214;12.270;2024-01-30T02:57:45;20.10;26.40
49184;DHT22;35021;49.214;12.270;2024-01-30T03:00:12;20.10;26.30
49184;DHT22;35021;49.214;12.270;2024-01-30T03:02:39;20.20;26.20
49184;DHT22;35021;49.214;12.270;2024-01-30T03:05:07;20.10;26.70
49184;DHT22;35021;49.214;12.270;2024-01-30T03:07:34;20.10;26.20
49184;DHT22;35021;49.214;12.270;2024-01-30T03:10:01;20.10;26.20
49184;DHT22;35021;49.214;12.270;2024-01-30T03:12:29;20.10;26.20
49184;DHT22;35021;49.214;12.270;2024-01-30T03:14:56;20.00;26.20
49184;DHT22;35021;49.214;12.270;2024-01-30T03:17:23;20.00;26.20
49184;DHT22;35021;49.214;12.270;2024-01-30T03:19:51;20.00;26.20
49184;DHT22;35021;49.214;12.270;2024-01-30T03:22:18;20.10;26.30
49184;DHT22;35021;49.214;12.270;2024-01-30T03:24:45;20.10;26.20
49184;DHT22;35021;49.214;12.270;2024-01-30T03:27:12;20.10;26.20
49184;DHT22;35021;49.214;12.270;2024-01-30T03:29:39;20.20;26.10
49184;DHT22;35021;49.214;12.270;2024-01-30T03:32:06;20.30;26.10
49184;DHT22;35021;49.214;12.270;2024-01-30T03:34:32;20.30;26.00
49184;DHT22;35021;49.214;12.270;2024-01-30T03:37:00;20.40;26.00
49184;DHT22;35021;49.214;12.270;2024-01-30T03:39:27;20.40;25.90
49184;DHT22;35021;49.214;12.270;2024-01-30T03:41:54;20.40;25.90
49184;DHT22;35021;49.214;12.270;2024-01-30T03:44:20;20.40;25.90
49184;DHT22;35021;49.214;12.270;2024-01-30T03:46:47;20.40;25.90
49184;DHT22;35021;49.214;12.270;2024-01-30T03:49:14;20.40;25.90
49184;DHT22;35021;49.214;12.270;2024-01-30T03:51:42;20.30;25.90
49184;DHT22;35021;49.214;12.270;2024-01-30T03:54:09;20.30;25.90
49184;DHT22;35021;49.214;12.270;2024-01-30T03:56:36;20.30;25.90
49184;DHT22;35021;49.214;12.270;2024-01-30T03:59:03;20.20;25.90
49184;DHT22;35021;49.214;12.270;2024-01-30T04:01:30;20.20;25.80
49184;DHT22;35021;49.214;12.270;2024-01-30T04:03:57;20.30;26.40
49184;DHT22;35021;49.214;12.270;2024-01-30T04:06:24;20.40;25.80
49184;DHT22;35021;49.214;12.270;2024-01-30T04:08:51;20.40;25.70
49184;DHT22;35021;49.214;12.270;2024-01-30T04:11:18;20.40;25.70
49184;DHT22;35021;49.214;12.270;2024-01-30T04:13:46;20.50;25.70
49184;DHT22;35021;49.214;12.270;2024-01-30T04:16:21;20.60;26.20
49184;DHT22;35021;49.214;12.270;2024-01-30T04:18:51;20.60;25.60
49184;DHT22;35021;49.214;12.270;2024-01-30T04:21:20;20.60;25.60
49184;DHT22;35021;49.214;12.270;2024-01-30T04:23:47;20.60;25.60
49184;DHT22;35021;49.214;12.270;2024-01-30T04:26:14;20.60;25.60
49184;DHT22;35021;49.214;12.270;2024-01-30T04:28:41;20.50;25.60
49184;DHT22;35021;49.214;12.270;2024-01-30T04:31:09;20.40;25.60
49184;DHT22;35021;49.214;12.270;2024-01-30T04:33:36;20.40;25.70
49184;DHT22;35021;49.214;12.270;2024-01-30T04:36:03;20.30;25.70
49184;DHT22;35021;49.214;12.270;2024-01-30T04:38:31;20.30;25.70
49184;DHT22;35021;49.214;12.270;2024-01-30T04:40:58;20.20;25.70
49184;DHT22;35021;49.214;12.270;2024-01-30T04:43:25;20.30;25.70
49184;DHT22;35021;49.214;12.270;2024-01-30T04:45:53;20.30;25.70
49184;DHT22;35021;49.214;12.270;2024-01-30T04:48:20;20.30;25.60
49184;DHT22;35021;49.214;12.270;2024-01-30T04:50:47;20.40;25.60
49184;DHT22;35021;49.214;12.270;2024-01-30T04:53:14;20.40;25.60
49184;DHT22;35021;49.214;12.270;2024-01-30T04:55:41;20.40;25.50
49184;DHT22;35021;49.214;12.270;2024-01-30T04:58:08;20.40;25.60
49184;DHT22;35021;49.214;12.270;2024-01-30T05:00:34;20.40;25.60
49184;DHT22;35021;49.214;12.270;2024-01-30T05:03:02;20.40;25.60
49184;DHT22;35021;49.214;12.270;2024-01-30T05:05:29;20.30;25.70
49184;DHT22;35021;49.214;12.270;2024-01-30T05:07:56;20.20;25.70
49184;DHT22;35021;49.214;12.270;2024-01-30T05:10:23;20.10;25.80
49184;DHT22;35021;49.214;12.270;2024-01-30T05:12:50;20.00;25.90
49184;DHT22;35021;49.214;12.270;2024-01-30T05:15:17;19.90;25.90
49184;DHT22;35021;49.214;12.270;2024-01-30T05:17:44;19.80;25.90
49184;DHT22;35021;49.214;12.270;2024-01-30T05:20:11;19.80;26.00
49184;DHT22;35021;49.214;12.270;2024-01-30T05:22:38;19.80;26.00
49184;DHT22;35021;49.214;12.270;2024-01-30T05:25:14;19.90;26.00
49184;DHT22;35021;49.214;12.270;2024-01-30T05:27:41;19.90;26.00
49184;DHT22;35021;49.214;12.270;2024-01-30T05:30:08;20.00;26.00
49184;DHT22;35021;49.214;12.270;2024-01-30T05:32:36;20.00;25.80
49184;DHT22;35021;49.214;12.270;2024-01-30T05:35:03;20.10;25.80
49184;DHT22;35021;49.214;12.270;2024-01-30T05:37:31;20.10;25.70
49184;DHT22;35021;49.214;12.270;2024-01-30T05:39:58;20.10;25.70
49184;DHT22;35021;49.214;12.270;2024-01-30T05:42:25;20.20;25.70
49184;DHT22;35021;49.214;12.270;2024-01-30T05:44:52;20.10;25.60
49184;DHT22;35021;49.214;12.270;2024-01-30T05:47:19;20.00;25.70
49184;DHT22;35021;49.214;12.270;2024-01-30T05:49:46;20.00;25.70
49184;DHT22;35021;49.214;12.270;2024-01-30T05:52:13;19.90;25.80
49184;DHT22;35021;49.214;12.270;2024-01-30T05:54:42;19.80;25.80
49184;DHT22;35021;49.214;12.270;2024-01-30T05:57:09;19.80;25.90
49184;DHT22;35021;49.214;12.270;2024-01-30T05:59:36;19.70;25.90
49184;DHT22;35021;49.214;12.270;2024-01-30T06:02:07;19.70;25.90
49184;DHT22;35021;49.214;12.270;2024-01-30T06:04:34;19.80;26.00
49184;DHT22;35021;49.214;12.270;2024-01-30T06:07:01;19.80;25.90
49184;DHT22;35021;49.214;12.270;2024-01-30T06:09:29;19.80;26.50
49184;DHT22;35021;49.214;12.270;2024-01-30T06:11:56;19.80;25.90
49184;DHT22;35021;49.214;12.270;2024-01-30T06:14:23;19.90;25.90
49184;DHT22;35021;49.214;12.270;2024-01-30T06:16:50;19.90;25.80
49184;DHT22;35021;49.214;12.270;2024-01-30T06:19:17;20.00;25.80
49184;DHT22;35021;49.214;12.270;2024-01-30T06:21:44;20.00;25.70
49184;DHT22;35021;49.214;12.270;2024-01-30T06:24:12;20.00;25.70
49184;DHT22;35021;49.214;12.270;2024-01-30T06:26:39;20.10;25.70
49184;DHT22;35021;49.214;12.270;2024-01-30T06:29:06;20.10;25.70
49184;DHT22;35021;49.214;12.270;2024-01-30T06:31:39;20.00;25.70
49184;DHT22;35021;49.214;12.270;2024-01-30T06:34:06;20.00;25.80
49184;DHT22;35021;49.214;12.270;2024-01-30T06:36:33;19.90;25.80
49184;DHT22;35021;49.214;12.270;2024-01-30T06:39:04;19.80;25.80
49184;DHT22;35021;49.214;12.270;2024-01-30T06:41:31;19.80;25.90
49184;DHT22;35021;49.214;12.270;2024-01-30T06:43:58;19.70;25.80
49184;DHT22;35021;49.214;12.270;2024-01-30T06:46:25;19.70;25.90
49184;DHT22;35021;49.214;12.270;2024-01-30T06:48:52;19.70;25.90
49184;DHT22;35021;49.214;12.270;2024-01-30T06:51:22;19.80;26.00
49184;DHT22;35021;49.214;12.270;2024-01-30T06:53:49;19.80;25.90
49184;DHT22;35021;49.214;12.270;2024-01-30T06:56:16;19.90;25.90
49184;DHT22;35021;49.214;12.270;2024-01-30T06:58:47;19.90;25.80
49184;DHT22;35021;49.214;12.270;2024-01-30T07:01:14;20.00;25.70
49184;DHT22;35021;49.214;12.270;2024-01-30T07:03:42;20.00;25.60
49184;DHT22;35021;49.214;12.270;2024-01-30T07:06:09;20.00;25.60
49184;DHT22;35021;49.214;12.270;2024-01-30T07:08:39;20.00;25.60
49184;DHT22;35021;49.214;12.270;2024-01-30T07:11:06;20.00;25.60
49184;DHT22;35021;49.214;12.270;2024-01-30T07:13:34;19.90;25.60
49184;DHT22;35021;49.214;12.270;2024-01-30T07:16:01;19.90;25.70
49184;DHT22;35021;49.214;12.270;2024-01-30T07:18:28;19.80;26.30
49184;DHT22;35021;49.214;12.270;2024-01-30T07:20:55;19.70;25.80
49184;DHT22;35021;49.214;12.270;2024-01-30T07:23:22;19.60;25.90
49184;DHT22;35021;49.214;12.270;2024-01-30T07:25:49;19.60;26.00
49184;DHT22;35021;49.214;12.270;2024-01-30T07:28:17;19.60;26.10
49184;DHT22;35021;49.214;12.270;2024-01-30T07:30:44;19.60;26.10
49184;DHT22;35021;49.214;12.270;2024-01-30T07:33:11;19.50;26.10
49184;DHT22;35021;49.214;12.270;2024-01-30T07:35:38;19.60;26.20
49184;DHT22;35021;49.214;12.270;2024-01-30T07:38:06;19.60;26.20
49184;DHT22;35021;49.214;12.270;2024-01-30T07:40:33;19.60;26.30
49184;DHT22;35021;49.214;12.270;2024-01-30T07:43:00;19.70;26.20
49184;DHT22;35021;49.214;12.270;2024-01-30T07:45:30;19.70;26.30
49184;DHT22;35021;49.214;12.270;2024-01-30T07:48:00;19.80;26.30
49184;DHT22;35021;49.214;12.270;2024-01-30T07:50:28;19.90;26.30
49184;DHT22;35021;49.214;12.270;2024-01-30T07:52:56;19.90;26.20
49184;DHT22;35021;49.214;12.270;2024-01-30T07:55:23;19.90;26.20
49184;DHT22;35021;49.214;12.270;2024-01-30T07:58:03;20.00;26.30
49184;DHT22;35021;49.214;12.270;2024-01-30T08:00:31;20.00;26.30
49184;DHT22;35021;49.214;12.270;2024-01-30T08:02:58;19.90;26.30
49184;DHT22;35021;49.214;12.270;2024-01-30T08:05:26;19.80;26.40
49184;DHT22;35021;49.214;12.270;2024-01-30T08:07:53;19.80;26.50
49184;DHT22;35021;49.214;12.270;2024-01-30T08:10:20;19.70;26.50
49184;DHT22;35021;49.214;12.270;2024-01-30T08:12:47;19.70;26.60
49184;DHT22;35021;49.214;12.270;2024-01-30T08:15:14;19.70;26.70
49184;DHT22;35021;49.214;12.270;2024-01-30T08:17:41;19.70;26.70
49184;DHT22;35021;49.214;12.270;2024-01-30T08:20:08;19.70;26.70
49184;DHT22;35021;49.214;12.270;2024-01-30T08:22:38;19.70;26.80
49184;DHT22;35021;49.214;12.270;2024-01-30T08:25:06;19.80;26.80
49184;DHT22;35021;49.214;12.270;2024-01-30T08:27:33;19.80;26.80
49184;DHT22;35021;49.214;12.270;2024-01-30T08:30:02;19.90;26.80
49184;DHT22;35021;49.214;12.270;2024-01-30T08:32:31;19.90;26.80
49184;DHT22;35021;49.214;12.270;2024-01-30T08:34:59;19.90;26.80
49184;DHT22;35021;49.214;12.270;2024-01-30T08:37:26;20.00;26.90
49184;DHT22;35021;49.214;12.270;2024-01-30T08:39:54;19.90;26.80
49184;DHT22;35021;49.214;12.270;2024-01-30T08:42:21;19.90;26.90
49184;DHT22;35021;49.214;12.270;2024-01-30T08:44:49;19.90;26.90
49184;DHT22;35021;49.214;12.270;2024-01-30T08:47:18;19.90;27.00
49184;DHT22;35021;49.214;12.270;2024-01-30T08:49:45;19.80;27.00
49184;DHT22;35021;49.214;12.270;2024-01-30T08:52:12;19.80;27.10
49184;DHT22;35021;49.214;12.270;2024-01-30T08:54:39;19.80;27.20
49184;DHT22;35021;49.214;12.270;2024-01-30T08:57:06;19.80;27.20
49184;DHT22;35021;49.214;12.270;2024-01-30T08:59:33;19.90;27.20
49184;DHT22;35021;49.214;12.270;2024-01-30T09:02:01;20.00;27.20
49184;DHT22;35021;49.214;12.270;2024-01-30T09:04:38;20.10;27.20
49184;DHT22;35021;49.214;12.270;2024-01-30T09:07:06;20.20;27.10
49184;DHT22;35021;49.214;12.270;2024-01-30T09:09:40;20.30;27.10
49184;DHT22;35021;49.214;12.270;2024-01-30T09:12:08;20.30;27.10
49184;DHT22;35021;49.214;12.270;2024-01-30T09:14:37;20.40;27.00
49184;DHT22;35021;49.214;12.270;2024-01-30T09:17:04;20.50;27.00
49184;DHT22;35021;49.214;12.270;2024-01-30T09:19:31;20.50;27.00
49184;DHT22;35021;49.214;12.270;2024-01-30T09:21:59;20.50;27.00
49184;DHT22;35021;49.214;12.270;2024-01-30T09:24:26;20.40;27.10
49184;DHT22;35021;49.214;12.270;2024-01-30T09:26:53;20.40;27.10
49184;DHT22;35021;49.214;12.270;2024-01-30T09:29:21;20.30;27.20
49184;DHT22;35021;49.214;12.270;2024-01-30T09:31:48;20.20;27.30
49184;DHT22;35021;49.214;12.270;2024-01-30T09:34:15;20.20;27.40
49184;DHT22;35021;49.214;12.270;2024-01-30T09:36:42;20.10;27.50
49184;DHT22;35021;49.214;12.270;2024-01-30T09:39:10;20.10;27.70
49184;DHT22;35021;49.214;12.270;2024-01-30T09:41:40;20.10;27.70
49184;DHT22;35021;49.214;12.270;2024-01-30T09:44:08;20.10;27.80
49184;DHT22;35021;49.214;12.270;2024-01-30T09:46:35;20.10;27.80
49184;DHT22;35021;49.214;12.270;2024-01-30T09:49:02;20.10;27.80
49184;DHT22;35021;49.214;12.270;2024-01-30T09:51:30;20.10;27.80
49184;DHT22;35021;49.214;12.270;2024-01-30T09:53:57;20.10;27.90
49184;DHT22;35021;49.214;12.270;2024-01-30T09:56:24;20.20;28.00
49184;DHT22;35021;49.214;12.270;2024-01-30T09:58:51;20.20;28.00
49184;DHT22;35021;49.214;12.270;2024-01-30T10:01:18;20.20;28.00
49184;DHT22;35021;49.214;12.270;2024-01-30T10:03:46;20.20;28.00
49184;DHT22;35021;49.214;12.270;2024-01-30T10:06:14;20.30;28.10
49184;DHT22;35021;49.214;12.270;2024-01-30T10:08:41;20.30;28.00
49184;DHT22;35021;49.214;12.270;2024-01-30T10:11:08;20.40;28.00
49184;DHT22;35021;49.214;12.270;2024-01-30T10:13:36;20.50;28.00
49184;DHT22;35021;49.214;12.270;2024-01-30T10:16:03;20.60;28.00
49184;DHT22;35021;49.214;12.270;2024-01-30T10:18:32;20.60;27.90
49184;DHT22;35021;49.214;12.270;2024-01-30T10:20:59;20.70;28.00
49184;DHT22;35021;49.214;12.270;2024-01-30T10:23:27;20.80;28.00
49184;DHT22;35021;49.214;12.270;2024-01-30T10:26:02;20.80;27.90
49184;DHT22;35021;49.214;12.270;2024-01-30T10:28:29;20.90;27.90
49184;DHT22;35021;49.214;12.270;2024-01-30T10:30:58;21.00;27.90
49184;DHT22;35021;49.214;12.270;2024-01-30T10:33:30;21.10;27.90
49184;DHT22;35021;49.214;12.270;2024-01-30T10:36:00;21.10;27.90
49184;DHT22;35021;49.214;12.270;2024-01-30T10:38:28;21.20;28.00
49184;DHT22;35021;49.214;12.270;2024-01-30T10:40:59;21.20;28.00
49184;DHT22;35021;49.214;12.270;2024-01-30T10:43:30;21.20;27.90
49184;DHT22;35021;49.214;12.270;2024-01-30T10:45:59;21.20;27.90
49184;DHT22;35021;49.214;12.270;2024-01-30T10:48:29;21.30;27.90
49184;DHT22;35021;49.214;12.270;2024-01-30T10:50:57;21.30;27.90
49184;DHT22;35021;49.214;12.270;2024-01-30T10:53:27;21.30;27.90
49184;DHT22;35021;49.214;12.270;2024-01-30T10:55:58;21.40;28.00
49184;DHT22;35021;49.214;12.270;2024-01-30T10:58:25;21.40;28.00
49184;DHT22;35021;49.214;12.270;2024-01-30T11:00:54;21.40;27.90
49184;DHT22;35021;49.214;12.270;2024-01-30T11:03:21;21.50;27.90
49184;DHT22;35021;49.214;12.270;2024-01-30T11:05:49;21.50;27.90
49184;DHT22;35021;49.214;12.270;2024-01-30T11:08:26;21.60;27.80
49184;DHT22;35021;49.214;12.270;2024-01-30T11:10:56;21.60;27.80
49184;DHT22;35021;49.214;12.270;2024-01-30T11:13:27;21.70;27.70
49184;DHT22;35021;49.214;12.270;2024-01-30T11:15:59;21.70;27.60
49184;DHT22;35021;49.214;12.270;2024-01-30T11:18:31;21.80;27.60
49184;DHT22;35021;49.214;12.270;2024-01-30T11:20:59;21.80;27.60
49184;DHT22;35021;49.214;12.270;2024-01-30T11:23:28;21.90;28.20
49184;DHT22;35021;49.214;12.270;2024-01-30T11:25:56;21.90;27.60
49184;DHT22;35021;49.214;12.270;2024-01-30T11:28:23;21.80;27.60
49184;DHT22;35021;49.214;12.270;2024-01-30T11:30:50;21.80;27.70
49184;DHT22;35021;49.214;12.270;2024-01-30T11:33:29;21.70;27.70
49184;DHT22;35021;49.214;12.270;2024-01-30T11:36:00;21.70;27.80
49184;DHT22;35021;49.214;12.270;2024-01-30T11:38:28;21.60;27.80
49184;DHT22;35021;49.214;12.270;2024-01-30T11:40:55;21.50;27.90
49184;DHT22;35021;49.214;12.270;2024-01-30T11:43:25;21.50;28.00
49184;DHT22;35021;49.214;12.270;2024-01-30T11:45:52;21.50;28.00
49184;DHT22;35021;49.214;12.270;2024-01-30T11:48:19;21.50;28.10
49184;DHT22;35021;49.214;12.270;2024-01-30T11:50:47;21.40;28.10
49184;DHT22;35021;49.214;12.270;2024-01-30T11:53:14;21.40;28.20
49184;DHT22;35021;49.214;12.270;2024-01-30T11:55:41;21.40;28.20
49184;DHT22;35021;49.214;12.270;2024-01-30T11:58:08;21.30;28.20
49184;DHT22;35021;49.214;12.270;2024-01-30T12:00:35;21.30;28.40
49184;DHT22;35021;49.214;12.270;2024-01-30T12:03:02;21.20;28.40
49184;DHT22;35021;49.214;12.270;2024-01-30T12:05:30;21.20;28.50
49184;DHT22;35021;49.214;12.270;2024-01-30T12:07:57;21.20;28.50
49184;DHT22;35021;49.214;12.270;2024-01-30T12:10:29;21.20;28.50
49184;DHT22;35021;49.214;12.270;2024-01-30T12:12:56;21.30;28.50
49184;DHT22;35021;49.214;12.270;2024-01-30T12:15:24;21.30;28.50
49184;DHT22;35021;49.214;12.270;2024-01-30T12:17:51;21.30;28.50
49184;DHT22;35021;49.214;12.270;2024-01-30T12:20:19;21.40;28.40
49184;DHT22;35021;49.214;12.270;2024-01-30T12:22:47;21.40;28.40
49184;DHT22;35021;49.214;12.270;2024-01-30T12:25:18;21.50;28.40
49184;DHT22;35021;49.214;12.270;2024-01-30T12:27:46;21.50;28.40
49184;DHT22;35021;49.214;12.270;2024-01-30T12:30:17;21.60;28.40
49184;DHT22;35021;49.214;12.270;2024-01-30T12:32:45;21.70;28.40
49184;DHT22;35021;49.214;12.270;2024-01-30T12:35:13;21.70;28.30
49184;DHT22;35021;49.214;12.270;2024-01-30T12:37:40;21.80;28.20
49184;DHT22;35021;49.214;12.270;2024-01-30T12:40:08;21.90;28.20
49184;DHT22;35021;49.214;12.270;2024-01-30T12:42:36;21.90;28.10
49184;DHT22;35021;49.214;12.270;2024-01-30T12:45:03;22.00;28.10
49184;DHT22;35021;49.214;12.270;2024-01-30T12:47:31;22.00;28.00
49184;DHT22;35021;49.214;12.270;2024-01-30T12:49:58;22.10;28.10
49184;DHT22;35021;49.214;12.270;2024-01-30T12:52:25;22.10;28.00
49184;DHT22;35021;49.214;12.270;2024-01-30T12:54:52;22.10;28.10
49184;DHT22;35021;49.214;12.270;2024-01-30T12:57:20;22.10;28.10
49184;DHT22;35021;49.214;12.270;2024-01-30T12:59:47;22.00;28.20
49184;DHT22;35021;49.214;12.270;2024-01-30T13:02:14;22.00;28.20
49184;DHT22;35021;49.214;12.270;2024-01-30T13:04:41;22.00;28.30
49184;DHT22;35021;49.214;12.270;2024-01-30T13:07:10;22.00;28.30
49184;DHT22;35021;49.214;12.270;2024-01-30T13:09:37;21.90;28.30
49184;DHT22;35021;49.214;12.270;2024-01-30T13:12:04;21.90;28.30
49184;DHT22;35021;49.214;12.270;2024-01-30T13:14:31;21.90;28.30
49184;DHT22;35021;49.214;12.270;2024-01-30T13:16:58;21.80;28.30
49184;DHT22;35021;49.214;12.270;2024-01-30T13:19:25;21.80;28.30
49184;DHT22;35021;49.214;12.270;2024-01-30T13:21:53;21.80;28.40
49184;DHT22;35021;49.214;12.270;2024-01-30T13:24:20;21.70;28.40
49184;DHT22;35021;49.214;12.270;2024-01-30T13:26:48;21.70;28.50
49184;DHT22;35021;49.214;12.270;2024-01-30T13:29:15;21.60;28.50
49184;DHT22;35021;49.214;12.270;2024-01-30T13:31:42;21.60;28.50
49184;DHT22;35021;49.214;12.270;2024-01-30T13:34:11;21.50;28.50
49184;DHT22;35021;49.214;12.270;2024-01-30T13:36:39;21.50;28.60
49184;DHT22;35021;49.214;12.270;2024-01-30T13:39:06;21.50;28.60
49184;DHT22;35021;49.214;12.270;2024-01-30T13:41:36;21.50;28.60
49184;DHT22;35021;49.214;12.270;2024-01-30T13:44:04;21.60;28.50
49184;DHT22;35021;49.214;12.270;2024-01-30T13:46:31;21.60;28.40
49184;DHT22;35021;49.214;12.270;2024-01-30T13:48:59;21.70;28.40
49184;DHT22;35021;49.214;12.270;2024-01-30T13:51:27;21.80;28.40
49184;DHT22;35021;49.214;12.270;2024-01-30T13:54:00;21.90;28.40
49184;DHT22;35021;49.214;12.270;2024-01-30T13:56:28;21.90;28.30
49184;DHT22;35021;49.214;12.270;2024-01-30T13:58:55;22.00;28.20
49184;DHT22;35021;49.214;12.270;2024-01-30T14:01:25;22.10;28.20
49184;DHT22;35021;49.214;12.270;2024-01-30T14:03:52;22.20;28.20
49184;DHT22;35021;49.214;12.270;2024-01-30T14:06:19;22.20;28.10
49184;DHT22;35021;49.214;12.270;2024-01-30T14:08:46;22.30;28.70
49184;DHT22;35021;49.214;12.270;2024-01-30T14:11:26;22.40;28.10
49184;DHT22;35021;49.214;12.270;2024-01-30T14:13:53;22.40;28.00
49184;DHT22;35021;49.214;12.270;2024-01-30T14:16:23;22.50;28.00
49184;DHT22;35021;49.214;12.270;2024-01-30T14:18:51;22.50;28.00
49184;DHT22;35021;49.214;12.270;2024-01-30T14:21:18;22.60;28.10
49184;DHT22;35021;49.214;12.270;2024-01-30T14:23:45;22.60;28.10
49184;DHT22;35021;49.214;12.270;2024-01-30T14:26:14;22.60;28.20
49184;DHT22;35021;49.214;12.270;2024-01-30T14:28:40;22.50;28.20
49184;DHT22;35021;49.214;12.270;2024-01-30T14:31:08;22.40;28.30
49184;DHT22;35021;49.214;12.270;2024-01-30T14:33:41;22.30;28.40
49184;DHT22;35021;49.214;12.270;2024-01-30T14:36:09;22.20;28.50
49184;DHT22;35021;49.214;12.270;2024-01-30T14:38:36;22.10;28.50
49184;DHT22;35021;49.214;12.270;2024-01-30T14:41:03;22.00;28.60
49184;DHT22;35021;49.214;12.270;2024-01-30T14:43:31;22.00;28.60
49184;DHT22;35021;49.214;12.270;2024-01-30T14:45:58;21.90;28.70
49184;DHT22;35021;49.214;12.270;2024-01-30T14:48:25;21.90;28.80
49184;DHT22;35021;49.214;12.270;2024-01-30T14:50:52;21.80;28.80
49184;DHT22;35021;49.214;12.270;2024-01-30T14:53:19;21.80;28.90
49184;DHT22;35021;49.214;12.270;2024-01-30T14:55:46;21.70;28.90
49184;DHT22;35021;49.214;12.270;2024-01-30T14:58:13;21.60;29.00
49184;DHT22;35021;49.214;12.270;2024-01-30T15:00:40;21.60;29.00
49184;DHT22;35021;49.214;12.270;2024-01-30T15:03:07;21.50;29.00
49184;DHT22;35021;49.214;12.270;2024-01-30T15:05:34;21.50;29.00
49184;DHT22;35021;49.214;12.270;2024-01-30T15:08:01;21.60;29.00
49184;DHT22;35021;49.214;12.270;2024-01-30T15:10:28;21.60;29.00
49184;DHT22;35021;49.214;12.270;2024-01-30T15:12:55;21.70;28.90
49184;DHT22;35021;49.214;12.270;2024-01-30T15:15:22;21.70;28.80
49184;DHT22;35021;49.214;12.270;2024-01-30T15:17:53;21.80;28.70